Friday, September 21, 2018, 6:07 PM EDT
Back to Local

KHWV, Shirley Brookhaven Airport

Location: Shirley, NY, United States Lat: 40.817
Local Time: 6:07 PM EDT (22:07 GMT) Lon: -72.867
Time Zone: US/Eastern Elev: 82 ft

Show me the last for .
Show Decoded

2018-09-21 16:56 METAR KHWV 212056Z AUTO 18014KT 10SM OVC043 22/17 A3011 RMK AO2 SLP196 T02170167
                 58025 =
2018-09-21 15:56 METAR KHWV 211956Z AUTO 18012KT 10SM OVC046 22/16 A3014 RMK AO2 SLP206 T02170156
                 =
2018-09-21 14:56 METAR KHWV 211856Z AUTO 19013KT 10SM FEW024 BKN046 BKN060 22/14 A3017 RMK AO2
                 SLP214 T02170144 =
2018-09-21 13:56 METAR KHWV 211756Z AUTO 18012KT 10SM OVC043 22/14 A3019 RMK AO2 SLP221 T02170144
                 10222 20189 56023 =
2018-09-21 12:56 METAR KHWV 211656Z AUTO 16012KT 10SM OVC055 21/13 A3021 RMK AO2 SLP229 T02110133
                 =
2018-09-21 11:56 METAR KHWV 211556Z AUTO 15011KT 10SM OVC060 21/13 A3023 RMK AO2 SLP237 T02110133
                 =
2018-09-21 10:56 METAR KHWV 211456Z AUTO 14009KT 10SM OVC060 21/13 A3026 RMK AO2 SLP245 T02060133
                 58007 =
2018-09-21 09:56 METAR KHWV 211356Z AUTO 15010KT 10SM CLR 21/14 A3027 RMK AO2 SLP251 T02110139 =
2018-09-21 08:56 METAR KHWV 211256Z AUTO 14007KT 10SM CLR 21/14 A3028 RMK AO2 SLP251 T02060139 =
2018-09-21 07:56 METAR KHWV 211156Z AUTO 14006KT 10SM OVC060 19/14 A3028 RMK AO2 SLP252 T01890144
                 10200 20183 50006 =
2018-09-21 06:56 METAR KHWV 211056Z AUTO 14003KT 10SM FEW025 OVC060 18/14 A3029 RMK AO2 SLP256
                 T01830144 =
2018-09-21 05:56 METAR KHWV 210956Z AUTO 15004KT 10SM FEW023 OVC060 18/14 A3027 RMK AO2 SLP250
                 T01830144 =
2018-09-21 04:56 METAR KHWV 210856Z AUTO 16005KT 10SM OVC055 18/15 A3026 RMK AO2 SLP246 T01830150
                 52001 =
2018-09-21 04:19 METAR KHWV 210819Z AUTO 14006KT 10SM FEW018 BKN035 OVC055 18/15 A3025 RMK AO2
                 T01830150 =
2018-09-21 03:56 METAR KHWV 210756Z AUTO 14007KT 10SM SCT018 BKN027 OVC050 19/15 A3026 RMK AO2
                 SLP245 T01890150 =
2018-09-21 03:51 METAR KHWV 210751Z AUTO 15005KT 10SM FEW018 BKN026 OVC050 19/15 A3026 RMK AO2 =
2018-09-21 03:27 METAR KHWV 210727Z AUTO 14005KT 10SM FEW020 BKN033 OVC055 18/14 A3026 RMK AO2
                 T01830144 =
2018-09-21 03:20 METAR KHWV 210720Z AUTO 14004KT 10SM FEW020 BKN029 OVC055 18/14 A3026 RMK AO2
                 T01830144 =
2018-09-21 02:56 METAR KHWV 210656Z AUTO 14005KT 10SM OVC055 18/14 A3026 RMK AO2 SLP245 T01830144
                 =
2018-09-21 01:56 METAR KHWV 210556Z AUTO 14006KT 10SM FEW027 SCT055 18/14 A3027 RMK AO2 SLP248
                 T01830144 10189 20183 58000 =
2018-09-21 01:43 METAR KHWV 210543Z AUTO 14007KT 10SM FEW017 SCT026 BKN055 18/15 A3027 RMK AO2
                 T01830150 =
2018-09-21 01:33 METAR KHWV 210533Z AUTO 14006KT 10SM FEW017 SCT022 BKN026 19/15 A3027 RMK AO2
                 T01890150 =
2018-09-21 00:56 METAR KHWV 210456Z AUTO 13005KT 10SM FEW026 FEW050 19/14 A3027 RMK AO2 SLP248
                 T01890144 402330156 =
2018-09-21 00:46 METAR KHWV 210446Z AUTO 14006KT 10SM FEW026 BKN050 18/14 A3027 RMK AO2 T01830144
                 =
2018-09-21 00:04 METAR KHWV 210404Z AUTO 00000KT 10SM BKN017 BKN023 OVC050 18/15 A3028 RMK AO2
                 T01830150 =
2018-09-20 23:56 METAR KHWV 210356Z AUTO 00000KT 10SM SCT018 BKN050 18/15 A3028 RMK AO2 SLP252
                 T01830150 =
2018-09-20 22:56 METAR KHWV 210256Z AUTO 14005KT 10SM OVC050 18/15 A3027 RMK AO2 SLP249 T01830150
                 50008 =
2018-09-20 21:56 METAR KHWV 210156Z AUTO VRB03KT 10SM OVC050 18/15 A3027 RMK AO2 SLP251 T01830150
                 =
2018-09-20 20:56 METAR KHWV 210056Z AUTO 14004KT 10SM BKN050 18/15 A3027 RMK AO2 SLP251 T01830150
                 =
2018-09-20 19:56 METAR KHWV 202356Z AUTO 12004KT 10SM OVC050 18/15 A3025 RMK AO2 SLP242 T01830150
                 10233 20178 51006 =
2018-09-20 18:56 METAR KHWV 202256Z AUTO 12004KT 10SM CLR 18/15 A3024 RMK AO2 SLP241 T01780150 =

Support USWX by starting your Amazon purchase here.